sensor_id;sensor_type;location;lat;lon;timestamp;P1;durP1;ratioP1;P2;durP2;ratioP2
69979;SDS011;57318;56.232;43.944;2024-02-21T00:00:07;8.47;;;4.80;;
69979;SDS011;57318;56.232;43.944;2024-02-21T00:02:33;6.85;;;4.00;;
69979;SDS011;57318;56.232;43.944;2024-02-21T00:04:59;10.33;;;5.97;;
69979;SDS011;57318;56.232;43.944;2024-02-21T00:07:24;6.53;;;3.77;;
69979;SDS011;57318;56.232;43.944;2024-02-21T00:09:50;8.30;;;3.70;;
69979;SDS011;57318;56.232;43.944;2024-02-21T00:12:16;8.02;;;4.25;;
69979;SDS011;57318;56.232;43.944;2024-02-21T00:14:41;7.82;;;4.40;;
69979;SDS011;57318;56.232;43.944;2024-02-21T00:17:07;6.60;;;3.00;;
69979;SDS011;57318;56.232;43.944;2024-02-21T00:19:33;10.05;;;4.07;;
69979;SDS011;57318;56.232;43.944;2024-02-21T00:24:25;7.35;;;4.47;;
69979;SDS011;57318;56.232;43.944;2024-02-21T00:26:51;10.25;;;4.90;;
69979;SDS011;57318;56.232;43.944;2024-02-21T00:29:16;13.13;;;5.47;;
69979;SDS011;57318;56.232;43.944;2024-02-21T00:31:42;11.87;;;5.37;;
69979;SDS011;57318;56.232;43.944;2024-02-21T00:34:10;33.45;;;10.65;;
69979;SDS011;57318;56.232;43.944;2024-02-21T00:36:37;18.58;;;7.18;;
69979;SDS011;57318;56.232;43.944;2024-02-21T00:39:03;27.90;;;8.82;;
69979;SDS011;57318;56.232;43.944;2024-02-21T00:41:29;17.92;;;6.65;;
69979;SDS011;57318;56.232;43.944;2024-02-21T00:43:55;11.15;;;5.10;;
69979;SDS011;57318;56.232;43.944;2024-02-21T00:46:20;10.50;;;4.97;;
69979;SDS011;57318;56.232;43.944;2024-02-21T00:48:46;6.33;;;3.73;;
69979;SDS011;57318;56.232;43.944;2024-02-21T00:51:12;7.63;;;4.03;;
69979;SDS011;57318;56.232;43.944;2024-02-21T00:53:37;5.83;;;3.37;;
69979;SDS011;57318;56.232;43.944;2024-02-21T00:56:04;6.25;;;3.35;;
69979;SDS011;57318;56.232;43.944;2024-02-21T00:58:30;6.00;;;4.03;;
69979;SDS011;57318;56.232;43.944;2024-02-21T01:00:56;8.25;;;4.65;;
69979;SDS011;57318;56.232;43.944;2024-02-21T01:03:22;12.35;;;6.70;;
69979;SDS011;57318;56.232;43.944;2024-02-21T01:05:47;12.30;;;5.43;;
69979;SDS011;57318;56.232;43.944;2024-02-21T01:08:13;12.33;;;7.10;;
69979;SDS011;57318;56.232;43.944;2024-02-21T01:10:39;13.83;;;7.17;;
69979;SDS011;57318;56.232;43.944;2024-02-21T01:13:04;13.13;;;6.70;;
69979;SDS011;57318;56.232;43.944;2024-02-21T01:15:30;10.60;;;4.55;;
69979;SDS011;57318;56.232;43.944;2024-02-21T01:17:56;14.13;;;6.38;;
69979;SDS011;57318;56.232;43.944;2024-02-21T01:20:22;11.40;;;5.77;;
69979;SDS011;57318;56.232;43.944;2024-02-21T01:22:47;8.30;;;5.10;;
69979;SDS011;57318;56.232;43.944;2024-02-21T01:25:13;9.32;;;3.90;;
69979;SDS011;57318;56.232;43.944;2024-02-21T01:27:39;5.97;;;3.53;;
69979;SDS011;57318;56.232;43.944;2024-02-21T01:30:05;6.18;;;3.63;;
69979;SDS011;57318;56.232;43.944;2024-02-21T01:32:31;5.68;;;3.17;;
69979;SDS011;57318;56.232;43.944;2024-02-21T01:34:57;6.10;;;3.13;;
69979;SDS011;57318;56.232;43.944;2024-02-21T01:37:22;5.00;;;3.17;;
69979;SDS011;57318;56.232;43.944;2024-02-21T01:39:48;4.90;;;3.30;;
69979;SDS011;57318;56.232;43.944;2024-02-21T01:42:14;6.28;;;3.30;;
69979;SDS011;57318;56.232;43.944;2024-02-21T01:44:40;5.55;;;3.22;;
69979;SDS011;57318;56.232;43.944;2024-02-21T01:47:06;6.82;;;3.78;;
69979;SDS011;57318;56.232;43.944;2024-02-21T01:49:33;9.07;;;3.45;;
69979;SDS011;57318;56.232;43.944;2024-02-21T01:51:59;3.65;;;2.67;;
69979;SDS011;57318;56.232;43.944;2024-02-21T01:54:26;4.20;;;2.50;;
69979;SDS011;57318;56.232;43.944;2024-02-21T01:56:53;8.80;;;3.03;;
69979;SDS011;57318;56.232;43.944;2024-02-21T01:59:19;4.65;;;2.80;;
69979;SDS011;57318;56.232;43.944;2024-02-21T02:01:47;5.22;;;2.40;;
69979;SDS011;57318;56.232;43.944;2024-02-21T02:04:13;6.05;;;3.47;;
69979;SDS011;57318;56.232;43.944;2024-02-21T02:06:39;6.50;;;2.88;;
69979;SDS011;57318;56.232;43.944;2024-02-21T02:09:06;5.07;;;2.90;;
69979;SDS011;57318;56.232;43.944;2024-02-21T02:11:32;3.13;;;2.53;;
69979;SDS011;57318;56.232;43.944;2024-02-21T02:13:58;7.85;;;3.38;;
69979;SDS011;57318;56.232;43.944;2024-02-21T02:16:24;6.13;;;3.07;;
69979;SDS011;57318;56.232;43.944;2024-02-21T02:18:50;6.40;;;3.53;;
69979;SDS011;57318;56.232;43.944;2024-02-21T02:21:27;4.27;;;2.73;;
69979;SDS011;57318;56.232;43.944;2024-02-21T02:23:56;6.35;;;3.10;;
69979;SDS011;57318;56.232;43.944;2024-02-21T02:28:48;6.60;;;2.83;;
69979;SDS011;57318;56.232;43.944;2024-02-21T02:31:13;6.77;;;3.30;;
69979;SDS011;57318;56.232;43.944;2024-02-21T02:33:39;4.97;;;2.60;;
69979;SDS011;57318;56.232;43.944;2024-02-21T02:36:05;5.50;;;2.70;;
69979;SDS011;57318;56.232;43.944;2024-02-21T02:38:31;8.38;;;3.53;;
69979;SDS011;57318;56.232;43.944;2024-02-21T02:40:56;4.60;;;2.42;;
69979;SDS011;57318;56.232;43.944;2024-02-21T02:43:22;5.60;;;3.37;;
69979;SDS011;57318;56.232;43.944;2024-02-21T02:45:48;4.50;;;2.45;;
69979;SDS011;57318;56.232;43.944;2024-02-21T02:48:13;5.73;;;2.60;;
69979;SDS011;57318;56.232;43.944;2024-02-21T02:50:39;4.70;;;2.57;;
69979;SDS011;57318;56.232;43.944;2024-02-21T02:53:05;4.07;;;2.30;;
69979;SDS011;57318;56.232;43.944;2024-02-21T02:55:30;5.47;;;2.67;;
69979;SDS011;57318;56.232;43.944;2024-02-21T02:57:56;4.17;;;1.90;;
69979;SDS011;57318;56.232;43.944;2024-02-21T03:00:22;5.80;;;2.30;;
69979;SDS011;57318;56.232;43.944;2024-02-21T03:02:48;4.35;;;2.22;;
69979;SDS011;57318;56.232;43.944;2024-02-21T03:05:15;2.95;;;1.67;;
69979;SDS011;57318;56.232;43.944;2024-02-21T03:07:43;4.38;;;2.42;;
69979;SDS011;57318;56.232;43.944;2024-02-21T03:12:35;4.68;;;2.08;;
69979;SDS011;57318;56.232;43.944;2024-02-21T03:15:01;4.15;;;2.28;;
69979;SDS011;57318;56.232;43.944;2024-02-21T03:17:30;5.95;;;2.15;;
69979;SDS011;57318;56.232;43.944;2024-02-21T03:19:56;5.13;;;2.42;;
69979;SDS011;57318;56.232;43.944;2024-02-21T03:22:22;4.53;;;2.58;;
69979;SDS011;57318;56.232;43.944;2024-02-21T03:24:48;3.87;;;2.43;;
69979;SDS011;57318;56.232;43.944;2024-02-21T03:27:14;4.95;;;2.67;;
69979;SDS011;57318;56.232;43.944;2024-02-21T03:29:40;4.23;;;2.47;;
69979;SDS011;57318;56.232;43.944;2024-02-21T03:32:05;4.73;;;2.40;;
69979;SDS011;57318;56.232;43.944;2024-02-21T03:34:31;3.60;;;2.00;;
69979;SDS011;57318;56.232;43.944;2024-02-21T03:36:57;3.43;;;1.90;;
69979;SDS011;57318;56.232;43.944;2024-02-21T03:39:22;4.32;;;2.40;;
69979;SDS011;57318;56.232;43.944;2024-02-21T03:41:48;4.00;;;2.30;;
69979;SDS011;57318;56.232;43.944;2024-02-21T03:44:14;3.63;;;2.03;;
69979;SDS011;57318;56.232;43.944;2024-02-21T03:46:40;3.20;;;2.23;;
69979;SDS011;57318;56.232;43.944;2024-02-21T03:49:06;2.58;;;1.55;;
69979;SDS011;57318;56.232;43.944;2024-02-21T03:51:32;3.38;;;1.85;;
69979;SDS011;57318;56.232;43.944;2024-02-21T03:53:58;2.80;;;1.70;;
69979;SDS011;57318;56.232;43.944;2024-02-21T03:56:23;3.45;;;2.33;;
69979;SDS011;57318;56.232;43.944;2024-02-21T03:58:49;1.50;;;1.20;;
69979;SDS011;57318;56.232;43.944;2024-02-21T04:01:15;2.45;;;2.03;;
69979;SDS011;57318;56.232;43.944;2024-02-21T04:03:42;3.08;;;1.80;;
69979;SDS011;57318;56.232;43.944;2024-02-21T04:06:08;4.78;;;2.30;;
69979;SDS011;57318;56.232;43.944;2024-02-21T04:08:35;4.22;;;2.15;;
69979;SDS011;57318;56.232;43.944;2024-02-21T04:11:01;1.75;;;1.50;;
69979;SDS011;57318;56.232;43.944;2024-02-21T04:13:26;1.95;;;1.42;;
69979;SDS011;57318;56.232;43.944;2024-02-21T04:15:52;2.93;;;2.13;;
69979;SDS011;57318;56.232;43.944;2024-02-21T04:18:18;3.37;;;1.80;;
69979;SDS011;57318;56.232;43.944;2024-02-21T04:20:43;4.17;;;1.87;;
69979;SDS011;57318;56.232;43.944;2024-02-21T04:23:09;3.13;;;2.07;;
69979;SDS011;57318;56.232;43.944;2024-02-21T04:25:35;2.65;;;1.83;;
69979;SDS011;57318;56.232;43.944;2024-02-21T04:28:01;3.22;;;1.80;;
69979;SDS011;57318;56.232;43.944;2024-02-21T04:30:27;2.80;;;1.95;;
69979;SDS011;57318;56.232;43.944;2024-02-21T04:32:52;2.85;;;1.67;;
69979;SDS011;57318;56.232;43.944;2024-02-21T04:35:18;3.30;;;1.60;;
69979;SDS011;57318;56.232;43.944;2024-02-21T04:37:44;3.22;;;1.55;;
69979;SDS011;57318;56.232;43.944;2024-02-21T04:40:10;2.67;;;1.60;;
69979;SDS011;57318;56.232;43.944;2024-02-21T04:42:36;2.92;;;1.80;;
69979;SDS011;57318;56.232;43.944;2024-02-21T04:45:02;2.77;;;1.90;;
69979;SDS011;57318;56.232;43.944;2024-02-21T04:47:30;3.72;;;1.63;;
69979;SDS011;57318;56.232;43.944;2024-02-21T04:49:55;7.20;;;2.43;;
69979;SDS011;57318;56.232;43.944;2024-02-21T04:52:21;4.47;;;2.30;;
69979;SDS011;57318;56.232;43.944;2024-02-21T04:54:47;2.35;;;1.90;;
69979;SDS011;57318;56.232;43.944;2024-02-21T04:57:12;2.22;;;1.50;;
69979;SDS011;57318;56.232;43.944;2024-02-21T04:59:45;3.47;;;1.77;;
69979;SDS011;57318;56.232;43.944;2024-02-21T05:02:14;5.78;;;1.80;;
69979;SDS011;57318;56.232;43.944;2024-02-21T05:07:07;4.25;;;2.05;;
69979;SDS011;57318;56.232;43.944;2024-02-21T05:09:33;2.65;;;1.63;;
69979;SDS011;57318;56.232;43.944;2024-02-21T05:11:59;3.08;;;1.80;;
69979;SDS011;57318;56.232;43.944;2024-02-21T05:14:25;1.70;;;1.42;;
69979;SDS011;57318;56.232;43.944;2024-02-21T05:16:54;2.60;;;1.65;;
69979;SDS011;57318;56.232;43.944;2024-02-21T05:19:20;3.03;;;1.42;;
69979;SDS011;57318;56.232;43.944;2024-02-21T05:21:46;2.90;;;1.98;;
69979;SDS011;57318;56.232;43.944;2024-02-21T05:24:12;3.33;;;2.07;;
69979;SDS011;57318;56.232;43.944;2024-02-21T05:26:37;3.03;;;1.90;;
69979;SDS011;57318;56.232;43.944;2024-02-21T05:29:03;2.60;;;1.92;;
69979;SDS011;57318;56.232;43.944;2024-02-21T05:32:14;4.47;;;2.03;;
69979;SDS011;57318;56.232;43.944;2024-02-21T05:34:24;2.03;;;1.80;;
69979;SDS011;57318;56.232;43.944;2024-02-21T05:39:16;2.90;;;1.90;;
69979;SDS011;57318;56.232;43.944;2024-02-21T05:41:42;3.55;;;2.08;;
69979;SDS011;57318;56.232;43.944;2024-02-21T05:44:08;3.00;;;2.10;;
69979;SDS011;57318;56.232;43.944;2024-02-21T05:46:34;3.42;;;1.60;;
69979;SDS011;57318;56.232;43.944;2024-02-21T05:49:00;3.20;;;1.98;;
69979;SDS011;57318;56.232;43.944;2024-02-21T05:51:26;3.40;;;1.70;;
69979;SDS011;57318;56.232;43.944;2024-02-21T05:53:51;2.20;;;1.55;;
69979;SDS011;57318;56.232;43.944;2024-02-21T05:56:17;2.60;;;1.73;;
69979;SDS011;57318;56.232;43.944;2024-02-21T05:58:43;4.25;;;2.10;;
69979;SDS011;57318;56.232;43.944;2024-02-21T06:01:09;1.83;;;1.40;;
69979;SDS011;57318;56.232;43.944;2024-02-21T06:03:34;3.65;;;2.05;;
69979;SDS011;57318;56.232;43.944;2024-02-21T06:06:01;3.08;;;1.80;;
69979;SDS011;57318;56.232;43.944;2024-02-21T06:08:27;3.65;;;1.85;;
69979;SDS011;57318;56.232;43.944;2024-02-21T06:10:53;4.63;;;1.75;;
69979;SDS011;57318;56.232;43.944;2024-02-21T06:13:20;2.33;;;1.65;;
69979;SDS011;57318;56.232;43.944;2024-02-21T06:15:47;3.80;;;1.90;;
69979;SDS011;57318;56.232;43.944;2024-02-21T06:18:13;4.03;;;2.08;;
69979;SDS011;57318;56.232;43.944;2024-02-21T06:20:38;1.77;;;1.63;;
69979;SDS011;57318;56.232;43.944;2024-02-21T06:23:06;3.63;;;1.83;;
69979;SDS011;57318;56.232;43.944;2024-02-21T06:25:32;4.63;;;2.03;;
69979;SDS011;57318;56.232;43.944;2024-02-21T06:27:57;3.25;;;2.10;;
69979;SDS011;57318;56.232;43.944;2024-02-21T06:30:23;4.70;;;2.30;;
69979;SDS011;57318;56.232;43.944;2024-02-21T06:32:49;4.67;;;2.10;;
69979;SDS011;57318;56.232;43.944;2024-02-21T06:35:14;3.90;;;2.43;;
69979;SDS011;57318;56.232;43.944;2024-02-21T06:37:40;8.43;;;1.40;;
69979;SDS011;57318;56.232;43.944;2024-02-21T06:40:06;4.00;;;2.08;;
69979;SDS011;57318;56.232;43.944;2024-02-21T06:42:32;4.70;;;2.30;;
69979;SDS011;57318;56.232;43.944;2024-02-21T06:44:58;2.97;;;1.83;;
69979;SDS011;57318;56.232;43.944;2024-02-21T06:47:23;2.40;;;1.73;;
69979;SDS011;57318;56.232;43.944;2024-02-21T06:49:49;5.07;;;2.00;;
69979;SDS011;57318;56.232;43.944;2024-02-21T06:52:19;2.25;;;1.55;;
69979;SDS011;57318;56.232;43.944;2024-02-21T06:54:49;3.92;;;1.92;;
69979;SDS011;57318;56.232;43.944;2024-02-21T06:57:15;2.03;;;1.30;;
69979;SDS011;57318;56.232;43.944;2024-02-21T06:59:41;4.35;;;1.70;;
69979;SDS011;57318;56.232;43.944;2024-02-21T07:02:07;3.35;;;2.03;;
69979;SDS011;57318;56.232;43.944;2024-02-21T07:04:33;2.95;;;2.10;;
69979;SDS011;57318;56.232;43.944;2024-02-21T07:06:59;2.80;;;1.90;;
69979;SDS011;57318;56.232;43.944;2024-02-21T07:09:25;3.58;;;2.03;;
69979;SDS011;57318;56.232;43.944;2024-02-21T07:11:51;2.63;;;1.67;;
69979;SDS011;57318;56.232;43.944;2024-02-21T07:14:18;5.50;;;1.83;;
69979;SDS011;57318;56.232;43.944;2024-02-21T07:16:44;5.88;;;2.50;;
69979;SDS011;57318;56.232;43.944;2024-02-21T07:19:09;3.13;;;1.90;;
69979;SDS011;57318;56.232;43.944;2024-02-21T07:21:35;3.05;;;1.83;;
69979;SDS011;57318;56.232;43.944;2024-02-21T07:24:03;2.10;;;1.52;;
69979;SDS011;57318;56.232;43.944;2024-02-21T07:28:56;2.22;;;1.98;;
69979;SDS011;57318;56.232;43.944;2024-02-21T07:31:22;4.17;;;2.50;;
69979;SDS011;57318;56.232;43.944;2024-02-21T07:33:47;5.47;;;2.10;;
69979;SDS011;57318;56.232;43.944;2024-02-21T07:36:15;2.97;;;2.00;;
69979;SDS011;57318;56.232;43.944;2024-02-21T07:38:41;4.10;;;1.83;;
69979;SDS011;57318;56.232;43.944;2024-02-21T07:41:07;4.63;;;2.20;;
69979;SDS011;57318;56.232;43.944;2024-02-21T07:43:33;3.95;;;2.10;;
69979;SDS011;57318;56.232;43.944;2024-02-21T07:45:58;3.25;;;1.77;;
69979;SDS011;57318;56.232;43.944;2024-02-21T07:48:24;2.87;;;2.00;;
69979;SDS011;57318;56.232;43.944;2024-02-21T07:50:51;3.35;;;2.10;;
69979;SDS011;57318;56.232;43.944;2024-02-21T07:53:17;3.20;;;2.30;;
69979;SDS011;57318;56.232;43.944;2024-02-21T07:55:43;3.70;;;1.90;;
69979;SDS011;57318;56.232;43.944;2024-02-21T07:58:09;3.90;;;2.53;;
69979;SDS011;57318;56.232;43.944;2024-02-21T08:00:35;4.17;;;2.33;;
69979;SDS011;57318;56.232;43.944;2024-02-21T08:03:00;3.17;;;2.07;;
69979;SDS011;57318;56.232;43.944;2024-02-21T08:05:26;6.73;;;2.67;;
69979;SDS011;57318;56.232;43.944;2024-02-21T08:10:18;5.85;;;2.60;;
69979;SDS011;57318;56.232;43.944;2024-02-21T08:12:44;3.90;;;2.33;;
69979;SDS011;57318;56.232;43.944;2024-02-21T08:15:09;3.57;;;2.17;;
69979;SDS011;57318;56.232;43.944;2024-02-21T08:17:37;4.85;;;2.58;;
69979;SDS011;57318;56.232;43.944;2024-02-21T08:20:03;4.37;;;3.20;;
69979;SDS011;57318;56.232;43.944;2024-02-21T08:22:30;4.15;;;2.40;;
69979;SDS011;57318;56.232;43.944;2024-02-21T08:24:55;4.80;;;2.53;;
69979;SDS011;57318;56.232;43.944;2024-02-21T08:27:21;3.55;;;2.60;;
69979;SDS011;57318;56.232;43.944;2024-02-21T08:29:47;3.03;;;2.37;;
69979;SDS011;57318;56.232;43.944;2024-02-21T08:32:13;4.87;;;2.63;;
69979;SDS011;57318;56.232;43.944;2024-02-21T08:34:39;5.65;;;2.40;;
69979;SDS011;57318;56.232;43.944;2024-02-21T08:37:04;6.23;;;3.20;;
69979;SDS011;57318;56.232;43.944;2024-02-21T08:39:30;4.43;;;2.70;;
69979;SDS011;57318;56.232;43.944;2024-02-21T08:41:56;5.80;;;2.65;;
69979;SDS011;57318;56.232;43.944;2024-02-21T08:44:23;4.23;;;2.27;;
69979;SDS011;57318;56.232;43.944;2024-02-21T08:46:51;4.00;;;2.30;;
69979;SDS011;57318;56.232;43.944;2024-02-21T08:49:17;4.07;;;2.17;;
69979;SDS011;57318;56.232;43.944;2024-02-21T08:51:43;3.90;;;2.50;;
69979;SDS011;57318;56.232;43.944;2024-02-21T08:54:09;5.55;;;2.22;;
69979;SDS011;57318;56.232;43.944;2024-02-21T08:56:34;5.00;;;2.30;;
69979;SDS011;57318;56.232;43.944;2024-02-21T08:59:00;4.57;;;2.65;;
69979;SDS011;57318;56.232;43.944;2024-02-21T09:03:52;3.92;;;1.90;;
69979;SDS011;57318;56.232;43.944;2024-02-21T09:06:19;3.40;;;2.13;;
69979;SDS011;57318;56.232;43.944;2024-02-21T09:08:48;2.95;;;1.95;;
69979;SDS011;57318;56.232;43.944;2024-02-21T09:11:14;3.60;;;1.80;;
69979;SDS011;57318;56.232;43.944;2024-02-21T09:13:40;2.47;;;1.92;;
69979;SDS011;57318;56.232;43.944;2024-02-21T09:16:06;3.30;;;2.05;;
69979;SDS011;57318;56.232;43.944;2024-02-21T09:18:31;3.20;;;1.80;;
69979;SDS011;57318;56.232;43.944;2024-02-21T09:20:57;5.63;;;2.30;;
69979;SDS011;57318;56.232;43.944;2024-02-21T09:23:26;4.43;;;2.60;;
69979;SDS011;57318;56.232;43.944;2024-02-21T09:25:52;3.30;;;2.13;;
69979;SDS011;57318;56.232;43.944;2024-02-21T09:28:17;2.83;;;2.00;;
69979;SDS011;57318;56.232;43.944;2024-02-21T09:30:43;5.93;;;2.70;;
69979;SDS011;57318;56.232;43.944;2024-02-21T09:33:09;4.18;;;2.08;;
69979;SDS011;57318;56.232;43.944;2024-02-21T09:35:35;3.07;;;1.80;;
69979;SDS011;57318;56.232;43.944;2024-02-21T09:38:01;3.50;;;2.00;;
69979;SDS011;57318;56.232;43.944;2024-02-21T09:40:27;3.60;;;1.92;;
69979;SDS011;57318;56.232;43.944;2024-02-21T09:43:00;3.97;;;2.43;;
69979;SDS011;57318;56.232;43.944;2024-02-21T09:45:29;5.05;;;1.95;;
69979;SDS011;57318;56.232;43.944;2024-02-21T09:50:35;3.72;;;2.00;;
69979;SDS011;57318;56.232;43.944;2024-02-21T09:53:06;2.70;;;1.95;;
69979;SDS011;57318;56.232;43.944;2024-02-21T09:55:33;5.22;;;2.00;;
69979;SDS011;57318;56.232;43.944;2024-02-21T09:58:01;3.20;;;2.30;;
69979;SDS011;57318;56.232;43.944;2024-02-21T10:00:28;2.90;;;1.70;;
69979;SDS011;57318;56.232;43.944;2024-02-21T10:02:54;8.53;;;2.70;;
69979;SDS011;57318;56.232;43.944;2024-02-21T10:05:20;4.47;;;2.20;;
69979;SDS011;57318;56.232;43.944;2024-02-21T10:07:46;3.23;;;2.50;;
69979;SDS011;57318;56.232;43.944;2024-02-21T10:10:14;4.90;;;2.67;;
69979;SDS011;57318;56.232;43.944;2024-02-21T10:12:48;5.18;;;2.58;;
69979;SDS011;57318;56.232;43.944;2024-02-21T10:15:20;3.85;;;1.95;;
69979;SDS011;57318;56.232;43.944;2024-02-21T10:17:48;5.75;;;2.80;;
69979;SDS011;57318;56.232;43.944;2024-02-21T10:20:15;4.90;;;2.50;;
69979;SDS011;57318;56.232;43.944;2024-02-21T10:22:41;5.70;;;3.10;;
69979;SDS011;57318;56.232;43.944;2024-02-21T10:25:11;3.92;;;2.67;;
69979;SDS011;57318;56.232;43.944;2024-02-21T10:27:41;4.13;;;2.83;;
69979;SDS011;57318;56.232;43.944;2024-02-21T10:30:07;4.95;;;2.60;;
69979;SDS011;57318;56.232;43.944;2024-02-21T10:32:48;5.13;;;2.67;;
69979;SDS011;57318;56.232;43.944;2024-02-21T10:35:33;6.88;;;2.95;;
69979;SDS011;57318;56.232;43.944;2024-02-21T10:37:59;5.85;;;3.17;;
69979;SDS011;57318;56.232;43.944;2024-02-21T10:40:26;6.50;;;3.90;;
69979;SDS011;57318;56.232;43.944;2024-02-21T10:42:58;5.00;;;2.92;;
69979;SDS011;57318;56.232;43.944;2024-02-21T10:45:29;8.45;;;3.50;;
69979;SDS011;57318;56.232;43.944;2024-02-21T10:50:32;4.63;;;2.65;;
69979;SDS011;57318;56.232;43.944;2024-02-21T10:53:20;6.05;;;3.75;;
69979;SDS011;57318;56.232;43.944;2024-02-21T10:55:56;6.20;;;3.55;;
69979;SDS011;57318;56.232;43.944;2024-02-21T10:58:31;7.32;;;3.20;;
69979;SDS011;57318;56.232;43.944;2024-02-21T11:00:58;7.00;;;3.13;;
69979;SDS011;57318;56.232;43.944;2024-02-21T11:03:24;7.72;;;3.38;;
69979;SDS011;57318;56.232;43.944;2024-02-21T11:05:50;5.07;;;2.73;;
69979;SDS011;57318;56.232;43.944;2024-02-21T11:08:17;5.60;;;3.10;;
69979;SDS011;57318;56.232;43.944;2024-02-21T11:10:45;6.37;;;2.73;;
69979;SDS011;57318;56.232;43.944;2024-02-21T11:13:11;4.88;;;2.85;;
69979;SDS011;57318;56.232;43.944;2024-02-21T11:15:38;5.15;;;2.53;;
69979;SDS011;57318;56.232;43.944;2024-02-21T11:18:04;4.97;;;2.73;;
69979;SDS011;57318;56.232;43.944;2024-02-21T11:20:34;4.70;;;2.60;;
69979;SDS011;57318;56.232;43.944;2024-02-21T11:23:00;6.47;;;2.20;;
69979;SDS011;57318;56.232;43.944;2024-02-21T11:25:27;3.85;;;2.05;;
69979;SDS011;57318;56.232;43.944;2024-02-21T11:28:02;3.78;;;2.40;;
69979;SDS011;57318;56.232;43.944;2024-02-21T11:30:32;4.32;;;2.80;;
69979;SDS011;57318;56.232;43.944;2024-02-21T11:33:06;3.55;;;2.13;;
69979;SDS011;57318;56.232;43.944;2024-02-21T11:35:35;5.50;;;2.28;;
69979;SDS011;57318;56.232;43.944;2024-02-21T11:38:13;4.20;;;2.65;;
69979;SDS011;57318;56.232;43.944;2024-02-21T11:40:46;4.93;;;2.60;;
69979;SDS011;57318;56.232;43.944;2024-02-21T11:43:12;3.30;;;2.30;;
69979;SDS011;57318;56.232;43.944;2024-02-21T11:45:37;2.27;;;1.30;;
69979;SDS011;57318;56.232;43.944;2024-02-21T11:50:36;3.60;;;1.77;;
69979;SDS011;57318;56.232;43.944;2024-02-21T11:53:02;3.65;;;2.10;;
69979;SDS011;57318;56.232;43.944;2024-02-21T11:55:28;3.65;;;1.50;;
69979;SDS011;57318;56.232;43.944;2024-02-21T11:57:54;3.80;;;2.38;;
69979;SDS011;57318;56.232;43.944;2024-02-21T12:00:20;3.73;;;1.77;;
69979;SDS011;57318;56.232;43.944;2024-02-21T12:02:46;2.22;;;1.48;;
69979;SDS011;57318;56.232;43.944;2024-02-21T12:05:12;3.60;;;2.03;;
69979;SDS011;57318;56.232;43.944;2024-02-21T12:07:39;3.10;;;1.73;;
69979;SDS011;57318;56.232;43.944;2024-02-21T12:10:08;2.28;;;1.90;;
69979;SDS011;57318;56.232;43.944;2024-02-21T12:12:36;3.10;;;1.63;;
69979;SDS011;57318;56.232;43.944;2024-02-21T12:15:06;2.53;;;1.98;;
69979;SDS011;57318;56.232;43.944;2024-02-21T12:17:33;2.13;;;1.73;;
69979;SDS011;57318;56.232;43.944;2024-02-21T12:20:02;3.17;;;1.80;;
69979;SDS011;57318;56.232;43.944;2024-02-21T12:22:43;2.72;;;1.63;;
69979;SDS011;57318;56.232;43.944;2024-02-21T12:25:19;3.03;;;1.90;;
69979;SDS011;57318;56.232;43.944;2024-02-21T12:27:48;3.33;;;1.70;;
69979;SDS011;57318;56.232;43.944;2024-02-21T12:30:14;3.15;;;1.73;;
69979;SDS011;57318;56.232;43.944;2024-02-21T12:35:06;2.35;;;1.70;;
69979;SDS011;57318;56.232;43.944;2024-02-21T12:37:32;1.33;;;1.15;;
69979;SDS011;57318;56.232;43.944;2024-02-21T12:39:58;3.17;;;1.48;;
69979;SDS011;57318;56.232;43.944;2024-02-21T12:42:24;2.30;;;1.73;;
69979;SDS011;57318;56.232;43.944;2024-02-21T12:44:51;3.67;;;1.73;;
69979;SDS011;57318;56.232;43.944;2024-02-21T12:47:18;2.83;;;1.77;;
69979;SDS011;57318;56.232;43.944;2024-02-21T12:49:45;3.22;;;2.20;;
69979;SDS011;57318;56.232;43.944;2024-02-21T12:52:14;2.75;;;1.80;;
69979;SDS011;57318;56.232;43.944;2024-02-21T12:54:39;2.90;;;1.50;;
69979;SDS011;57318;56.232;43.944;2024-02-21T12:57:05;3.03;;;1.87;;
69979;SDS011;57318;56.232;43.944;2024-02-21T12:59:30;1.57;;;1.10;;
69979;SDS011;57318;56.232;43.944;2024-02-21T13:01:56;3.33;;;1.70;;
69979;SDS011;57318;56.232;43.944;2024-02-21T13:04:22;3.23;;;1.77;;
69979;SDS011;57318;56.232;43.944;2024-02-21T13:06:48;3.60;;;1.67;;
69979;SDS011;57318;56.232;43.944;2024-02-21T13:09:14;2.45;;;1.10;;
69979;SDS011;57318;56.232;43.944;2024-02-21T13:11:41;3.92;;;1.98;;
69979;SDS011;57318;56.232;43.944;2024-02-21T13:14:08;2.75;;;2.03;;
69979;SDS011;57318;56.232;43.944;2024-02-21T13:16:33;3.33;;;2.10;;
69979;SDS011;57318;56.232;43.944;2024-02-21T13:19:04;3.90;;;2.35;;
69979;SDS011;57318;56.232;43.944;2024-02-21T13:21:30;3.17;;;2.08;;
69979;SDS011;57318;56.232;43.944;2024-02-21T13:23:56;4.37;;;2.00;;
69979;SDS011;57318;56.232;43.944;2024-02-21T13:26:22;4.13;;;1.90;;
69979;SDS011;57318;56.232;43.944;2024-02-21T13:28:48;2.28;;;1.55;;
69979;SDS011;57318;56.232;43.944;2024-02-21T13:31:14;4.23;;;2.60;;
69979;SDS011;57318;56.232;43.944;2024-02-21T13:33:41;4.80;;;2.55;;
69979;SDS011;57318;56.232;43.944;2024-02-21T13:36:09;3.50;;;2.03;;
69979;SDS011;57318;56.232;43.944;2024-02-21T13:38:35;2.55;;;1.80;;
69979;SDS011;57318;56.232;43.944;2024-02-21T13:41:01;2.72;;;1.92;;
69979;SDS011;57318;56.232;43.944;2024-02-21T13:43:27;3.35;;;2.10;;
69979;SDS011;57318;56.232;43.944;2024-02-21T13:45:56;6.40;;;2.03;;
69979;SDS011;57318;56.232;43.944;2024-02-21T13:48:27;4.28;;;2.50;;
69979;SDS011;57318;56.232;43.944;2024-02-21T13:50:54;3.83;;;2.08;;
69979;SDS011;57318;56.232;43.944;2024-02-21T13:53:20;3.30;;;1.90;;
69979;SDS011;57318;56.232;43.944;2024-02-21T13:55:46;3.55;;;2.15;;
69979;SDS011;57318;56.232;43.944;2024-02-21T13:58:12;5.13;;;2.58;;
69979;SDS011;57318;56.232;43.944;2024-02-21T14:00:38;2.58;;;1.90;;
69979;SDS011;57318;56.232;43.944;2024-02-21T14:03:04;3.33;;;1.88;;
69979;SDS011;57318;56.232;43.944;2024-02-21T14:05:29;2.78;;;1.83;;
69979;SDS011;57318;56.232;43.944;2024-02-21T14:07:55;2.95;;;2.08;;
69979;SDS011;57318;56.232;43.944;2024-02-21T14:10:21;3.88;;;2.38;;
69979;SDS011;57318;56.232;43.944;2024-02-21T14:12:47;2.20;;;1.40;;
69979;SDS011;57318;56.232;43.944;2024-02-21T14:15:13;2.97;;;2.00;;
69979;SDS011;57318;56.232;43.944;2024-02-21T14:17:39;4.40;;;2.78;;
69979;SDS011;57318;56.232;43.944;2024-02-21T14:20:07;9.63;;;2.40;;
69979;SDS011;57318;56.232;43.944;2024-02-21T14:22:33;6.63;;;2.70;;
69979;SDS011;57318;56.232;43.944;2024-02-21T14:24:59;7.72;;;2.45;;
69979;SDS011;57318;56.232;43.944;2024-02-21T14:27:26;3.53;;;2.40;;
69979;SDS011;57318;56.232;43.944;2024-02-21T14:29:51;4.80;;;2.35;;
69979;SDS011;57318;56.232;43.944;2024-02-21T14:32:18;3.88;;;2.00;;
69979;SDS011;57318;56.232;43.944;2024-02-21T14:37:10;7.10;;;2.35;;
69979;SDS011;57318;56.232;43.944;2024-02-21T14:39:39;6.28;;;2.50;;
69979;SDS011;57318;56.232;43.944;2024-02-21T14:42:05;4.82;;;2.05;;
69979;SDS011;57318;56.232;43.944;2024-02-21T14:44:31;3.75;;;2.67;;
69979;SDS011;57318;56.232;43.944;2024-02-21T14:46:56;3.10;;;1.97;;
69979;SDS011;57318;56.232;43.944;2024-02-21T14:49:22;4.03;;;2.07;;
69979;SDS011;57318;56.232;43.944;2024-02-21T14:54:14;7.50;;;2.72;;
69979;SDS011;57318;56.232;43.944;2024-02-21T14:56:40;6.97;;;2.83;;
69979;SDS011;57318;56.232;43.944;2024-02-21T14:59:05;2.30;;;1.87;;
69979;SDS011;57318;56.232;43.944;2024-02-21T15:01:35;4.50;;;2.70;;
69979;SDS011;57318;56.232;43.944;2024-02-21T15:04:03;4.97;;;2.65;;